sabremau's sites:

title views votes rating creation
?Not KinetiCrafts 4,062 28 (2.96)  2005-08-14
?Overlord Fluffycoat is Watching 10,308 237 (3.90)  2005-08-18
?Scrooge loses his favorite ice cream 19,655 385 (4.01)  2005-08-30
?Zoidberg's a monster? 27,441 513 (3.65)  2005-08-30
?Emperor Fred has an announcement! 8,401 90 (3.56)  2005-09-02
?Captain Sean-Luc Penn of the U.S.S. Plastic Cup 2,420 30 (3.13)  2005-09-05
?Kuru kuru kuru kuru! 1,587 36 (3.50)  2005-09-07
?President Carlos serenades reporters 1,680 27 (3.52)  2005-09-11
?The Vick Flip 5,232 28 (3.39)  2005-09-13
?867-5309 2,280 43 (3.74)  2005-09-13
?Macho Ginyu Pose 2,722 34 (3.44)  2005-09-13
?Ford into Mordor? 9,021 121 (4.12)  2005-09-13
?Are you a bad enough Skuld to rescue them? 1,850 31 (3.03)  2005-09-16
?Maid Marian Works It 5,614 38 (3.42)  2005-09-18
?Something's wrong with the CD!! (refresh) 20,428 442 (4.25)  2005-09-24
?Don't praise the cat 3,540 55 (1.73)  2005-09-28
?Tifa makes bee noises 15,698 92 (3.63)  2005-09-29
?That Crazy Hand Jive 4,053 99 (3.77)  2005-09-29
?Kitty Birthday! 13,833 332 (3.90)  2005-09-30
?Tycho requires frozen treats 1,586 26 (3.58)  2005-10-03
?Zangief Techno Cossack 8,297 35 (3.91)  2005-10-06
?Jim Carrey changes facial expressions 22,295 165 (3.85)  2005-10-31
?The Fearsome Blood Elves 246,916 1,332 (3.04)  2005-11-05
?Run Lupin Run 3,075 52 (4.00)  2005-11-08
?Cats Bred for a Single Purpose 1,617 22 (3.68)  2005-11-08
?Colin the Friendly Mugger 7,172 72 (3.79)  2005-11-09
?As Full as a Baked Potato 2,427 28 (3.64)  2005-11-16
?Buttery Flavoured Colin 2,618 38 (3.68)  2005-11-19
?Star Trek: Gargoyles 38,964 548 (4.02)  2005-11-27
?Phoenix Wright: Go West! 18,741 223 (3.96)  2005-12-04
?Sailor Moon vs. Sakaki 178,647 1,448 (4.04)  2005-12-06
?Admiral Ackbar's New Battle Cry 4,121 44 (3.66)  2005-12-08
?Colin Mochrie's Tribal Dance 118,047 1,298 (4.19)  2005-12-15
?Star Control 2: Picard vs. Batman 22,600 233 (4.03)  2005-12-26
?Lupin's Elevator 2,706 47 (4.04)  2005-12-31
?Colonel Potter Song 7,041 107 (4.01)  2006-01-03
?Colin Mochrie's Bebop 10,437 115 (3.94)  2006-01-09
?Face/Off: Kaorin & Sakaki 5,264 49 (3.67)  2006-01-10
?Jung Hwa Ban Jeom 2,296 22 (3.45)  2006-01-15
?Jessica Fletcher Stares Into Your Window 2,507 61 (3.70)  2006-01-19
?Undead Schoolgirls Dance With Finnish Thing 96,405 1,552 (3.70)  2006-01-21
?Moment of a Galaxy 1,933 31 (3.71)  2006-01-23
?Detergent, detergent...THE CAT! 1,564 20 (3.60)  2006-01-25
?Preoccupied with 1985 28,380 379 (3.67)  2006-01-26
?Arcanite Reaper, HO! 16,387 26 (4.12)  2006-02-14
?Colin Mochrie's Raptor Dance 37,847 621 (4.19)  2006-02-15
?Colin Mochrie Walks the Dinosaur 12,520 135 (4.00)  2006-02-15
?This is the Answer 5,651 81 (3.26)  2006-02-16
?Tycho and Gabe Snap Through Time 1,955 34 (3.76)  2006-03-01
?Colin Mochrie's Breakdance 11,135 486 (4.03)  2006-03-02
?Colin Mochrie's Finnish Moskau 3,759 38 (3.87)  2006-03-04
?Navy Guy likes Baron's Mount 3,937 23 (3.74)  2006-03-11
?Rhombic Dodecahedron 11,537 689 (3.95)  2006-03-15
?PTKFGS: Sakaki vs. Sailor Moon 30,532 504 (3.74)  2006-03-16
?(nsfw) Ireoda TA-LA-LA 11,094 129 (3.79)  2006-03-23
?Roji Panty Complex 11,900 288 (3.98)  2006-03-30
?Nuna Nuna Ui 30,744 422 (4.05)  2006-03-31
?Yuki's Baseball Practice 5,655 71 (4.20)  2006-04-24
?Mikuru Not Guaranteed 6,025 77 (4.17)  2006-04-27
?Leavened with Delicious Avocado 2,870 28 (3.93)  2006-04-27
?Colbert is... (upgraded) Star Wars Kid! 29,134 441 (4.21)  2006-08-13
?Mace Windu evaluates Colbert's skills 72,706 1,536 (4.55)  2006-08-14
?Gravity Cat vs. Arilou 2,184 23 (3.43)  2006-08-22
?Hooray for the Electro-Barrier! 10,341 258 (3.83)  2006-10-23
?Jackie Chan in Drunken Master II 3,578 18 (4.17)  2007-07-19
?A Little Ditty Going Through Ryu's Head 3,373 17 (3.76)  2009-01-12
?Beartato Flying 1,302 10 (3.10)  2009-09-29
?Wobbominations 2,145 5 (3.80)  2010-01-19
?You Resemble Babar 1,023 8 (3.50)  2010-04-22
?Chatstick Fishbumps 3,447 11 (3.45)  2010-04-30
?Ghost Rider Wants To Take Deadpool For A Ride 2,962 2 (4.00)  2010-12-21